Time;durP1;ratioP1;P1;durP2;ratioP2;P2;SDS_P1;SDS_P2;PMS_P1;PMS_P2;Temp;Humidity;BMP_temperature;BMP_pressure;BME280_temperature;BME280_humidity;BME280_pressure;Samples;Min_cycle;Max_cycle;Signal;HPM_P1;HPM_P2
2023/12/02 00:00:02;;;;;;;12.43;9.13;;;0.10;1.00;;;;;;5115648;28;20203;-79
2023/12/02 00:02:28;;;;;;;15.48;8.68;;;0.10;1.00;;;;;;5111932;28;20215;-79
2023/12/02 00:04:57;;;;;;;12.87;8.57;;;0.20;1.00;;;;;;5098635;28;20215;-79
2023/12/02 00:07:23;;;;;;;15.15;9.30;;;0.20;1.00;;;;;;5100117;28;20984;-79
2023/12/02 00:09:50;;;;;;;16.52;9.10;;;0.20;1.00;;;;;;5107749;28;20235;-80
2023/12/02 00:12:17;;;;;;;15.57;9.10;;;0.20;1.00;;;;;;5111768;28;20207;-78
2023/12/02 00:14:44;;;;;;;12.85;9.52;;;0.20;1.00;;;;;;5116046;28;20215;-79
2023/12/02 00:17:11;;;;;;;15.77;9.45;;;0.10;1.00;;;;;;5113030;28;20227;-79
2023/12/02 00:19:38;;;;;;;17.57;10.73;;;0.10;1.00;;;;;;5109684;28;20213;-79
2023/12/02 00:22:06;;;;;;;17.58;10.27;;;0.00;1.00;;;;;;5110622;28;20456;-79
2023/12/02 00:24:33;;;;;;;16.20;9.50;;;0.00;1.00;;;;;;5109895;28;20753;-80
2023/12/02 00:27:00;;;;;;;15.77;9.47;;;0.10;1.00;;;;;;5116065;28;20597;-80
2023/12/02 00:29:27;;;;;;;18.17;9.90;;;0.10;1.00;;;;;;5115179;28;20492;-80
2023/12/02 00:31:54;;;;;;;11.52;7.65;;;0.10;1.00;;;;;;5112768;28;20694;-80
2023/12/02 00:34:20;;;;;;;13.30;9.23;;;0.10;1.00;;;;;;5112283;28;20238;-80
2023/12/02 00:36:47;;;;;;;15.00;10.17;;;0.10;1.00;;;;;;5111673;28;20221;-80
2023/12/02 00:39:16;;;;;;;16.65;10.00;;;0.00;1.00;;;;;;5108133;28;20459;-80
2023/12/02 00:41:43;;;;;;;16.23;9.70;;;-0.10;1.00;;;;;;5112416;28;20294;-80
2023/12/02 00:44:10;;;;;;;15.87;9.30;;;0.00;1.00;;;;;;5115106;28;20459;-81
2023/12/02 00:46:36;;;;;;;15.60;9.07;;;0.00;1.00;;;;;;5109312;28;20456;-81
2023/12/02 00:49:03;;;;;;;12.63;7.53;;;0.10;1.00;;;;;;5112432;28;20254;-80
2023/12/02 00:51:30;;;;;;;13.57;9.05;;;-0.10;1.00;;;;;;5107306;28;20442;-79
2023/12/02 00:53:57;;;;;;;15.70;9.02;;;-0.10;1.00;;;;;;5110960;28;20210;-79
2023/12/02 00:56:25;;;;;;;17.15;9.77;;;-0.10;1.00;;;;;;5114877;28;20211;-79
2023/12/02 00:58:52;;;;;;;13.17;7.90;;;0.10;1.00;;;;;;5115025;28;20223;-78
2023/12/02 01:01:18;;;;;;;11.83;7.90;;;0.00;1.00;;;;;;5116010;28;20454;-78
2023/12/02 01:03:45;;;;;;;14.80;9.33;;;0.10;1.00;;;;;;5115178;28;20453;-79
2023/12/02 01:06:12;;;;;;;15.80;10.50;;;0.10;1.00;;;;;;5115802;28;20949;-81
2023/12/02 01:08:39;;;;;;;16.17;8.50;;;0.00;1.00;;;;;;5103783;28;20473;-79
2023/12/02 01:11:06;;;;;;;15.37;9.20;;;-0.10;1.00;;;;;;5111749;28;20453;-79
2023/12/02 01:13:34;;;;;;;14.43;9.13;;;-0.10;1.00;;;;;;5115028;28;20461;-80
2023/12/02 01:16:01;;;;;;;14.60;9.17;;;-0.20;1.00;;;;;;5114712;28;20222;-79
2023/12/02 01:18:28;;;;;;;17.90;10.18;;;-0.10;1.00;;;;;;5113966;28;20455;-79
2023/12/02 01:20:54;;;;;;;15.93;9.73;;;-0.20;1.00;;;;;;5115585;28;20210;-80
2023/12/02 01:23:21;;;;;;;14.48;8.85;;;-0.20;1.00;;;;;;5118268;28;20535;-80
2023/12/02 01:25:48;;;;;;;12.82;8.68;;;-0.20;1.00;;;;;;5113920;28;20207;-81
2023/12/02 01:28:15;;;;;;;12.13;7.20;;;-0.10;1.00;;;;;;5113046;28;20691;-80
2023/12/02 01:30:43;;;;;;;12.50;7.22;;;-0.10;1.00;;;;;;5111774;28;20232;-81
2023/12/02 01:33:10;;;;;;;11.70;7.20;;;-0.10;1.00;;;;;;5116951;28;20211;-81
2023/12/02 01:35:36;;;;;;;15.95;7.70;;;0.00;1.00;;;;;;5115290;28;20206;-81
2023/12/02 01:38:03;;;;;;;13.70;9.45;;;0.10;1.00;;;;;;5110265;28;20224;-81
2023/12/02 01:40:30;;;;;;;13.40;9.02;;;0.10;1.00;;;;;;5109748;28;20214;-81
2023/12/02 01:42:57;;;;;;;13.90;9.20;;;0.10;1.00;;;;;;5116907;28;20210;-81
2023/12/02 01:45:24;;;;;;;15.03;8.60;;;0.00;1.00;;;;;;5111108;28;20463;-81
2023/12/02 01:47:52;;;;;;;12.30;7.70;;;0.00;1.00;;;;;;5118075;28;20476;-81
2023/12/02 01:50:20;;;;;;;10.80;7.77;;;0.00;1.00;;;;;;5110562;28;20777;-81
2023/12/02 01:52:46;;;;;;;11.90;6.80;;;0.10;1.00;;;;;;5110963;28;20535;-80
2023/12/02 01:55:13;;;;;;;15.00;8.80;;;0.10;1.00;;;;;;5116079;28;20905;-81
2023/12/02 01:57:41;;;;;;;15.18;9.10;;;0.00;1.00;;;;;;5116609;28;20557;-79
2023/12/02 02:00:10;;;;;;;13.27;8.57;;;0.00;1.00;;;;;;5108263;28;20199;-80
2023/12/02 02:02:37;;;;;;;14.38;8.60;;;-0.10;99.90;;;;;;5116930;28;20207;-80
2023/12/02 02:05:06;;;;;;;13.73;9.33;;;-0.30;1.00;;;;;;5117178;28;20213;-81
2023/12/02 02:07:32;;;;;;;14.10;8.27;;;-0.20;1.00;;;;;;5114420;28;20477;-79
2023/12/02 02:09:59;;;;;;;18.52;9.23;;;-0.20;1.00;;;;;;5107666;28;20713;-81
2023/12/02 02:12:26;;;;;;;13.75;9.27;;;-0.30;1.00;;;;;;5115198;28;20588;-80
2023/12/02 02:14:53;;;;;;;16.95;10.18;;;-0.20;1.00;;;;;;5112640;28;20231;-79
2023/12/02 02:17:20;;;;;;;13.48;9.30;;;-0.30;1.00;;;;;;5113377;28;20238;-81
2023/12/02 02:19:47;;;;;;;13.00;7.80;;;-0.20;1.00;;;;;;5107562;28;20205;-81
2023/12/02 02:22:15;;;;;;;18.83;9.00;;;-0.10;1.00;;;;;;5109045;28;20206;-81
2023/12/02 02:24:42;;;;;;;14.07;8.87;;;-0.20;1.00;;;;;;5114950;28;20267;-81
2023/12/02 02:27:09;;;;;;;14.15;7.97;;;-0.30;1.00;;;;;;5117548;28;20535;-79
2023/12/02 02:29:35;;;;;;;16.83;9.73;;;-0.30;1.00;;;;;;5105038;28;20597;-80
2023/12/02 02:32:02;;;;;;;14.50;8.70;;;-0.20;1.00;;;;;;5107187;28;20679;-79
2023/12/02 02:34:29;;;;;;;11.60;8.25;;;-0.20;1.00;;;;;;5112614;28;20212;-81
2023/12/02 02:36:56;;;;;;;14.15;8.50;;;-0.20;1.00;;;;;;5115537;28;20717;-81
2023/12/02 02:39:25;;;;;;;15.47;8.70;;;-0.10;1.00;;;;;;5101672;28;20206;-80
2023/12/02 02:41:51;;;;;;;13.48;8.02;;;-0.20;1.00;;;;;;5107521;28;20540;-81
2023/12/02 02:44:18;;;;;;;11.82;6.95;;;0.00;1.00;;;;;;5086085;28;20214;-80
2023/12/02 02:46:45;;;;;;;13.80;8.70;;;-0.20;1.00;;;;;;5092432;28;20679;-79
2023/12/02 02:49:12;;;;;;;13.45;8.18;;;-0.20;1.00;;;;;;5097273;28;20580;-81
2023/12/02 02:51:38;;;;;;;12.15;8.15;;;-0.20;1.00;;;;;;5114367;28;20202;-81
2023/12/02 02:54:05;;;;;;;15.77;8.23;;;-0.20;1.00;;;;;;5113294;28;20219;-78
2023/12/02 02:56:33;;;;;;;13.32;8.70;;;-0.30;1.00;;;;;;5111705;28;20213;-79
2023/12/02 02:59:00;;;;;;;14.80;6.80;;;-0.40;1.00;;;;;;5113924;28;20231;-80
2023/12/02 03:01:27;;;;;;;20.13;9.10;;;-0.40;1.00;;;;;;5121472;28;20230;-80
2023/12/02 03:03:54;;;;;;;15.23;8.95;;;-0.40;1.00;;;;;;5119840;28;20452;-81
2023/12/02 03:06:20;;;;;;;17.98;9.18;;;-0.50;1.00;;;;;;5121839;28;20305;-79
2023/12/02 03:08:47;;;;;;;16.90;9.20;;;-0.40;1.00;;;;;;5108864;28;20219;-80
2023/12/02 03:11:14;;;;;;;12.60;6.95;;;-0.30;1.00;;;;;;5120442;28;20470;-81
2023/12/02 03:13:42;;;;;;;22.52;10.68;;;-0.30;1.00;;;;;;5120968;28;20220;-80
2023/12/02 03:16:10;;;;;;;18.95;10.02;;;-0.40;1.00;;;;;;5120079;28;20210;-80
2023/12/02 03:18:37;;;;;;;20.10;11.05;;;-0.40;1.00;;;;;;5110910;28;20230;-79
2023/12/02 03:21:04;;;;;;;17.85;10.07;;;-0.50;1.00;;;;;;5108278;28;20292;-80
2023/12/02 03:23:31;;;;;;;16.05;9.13;;;-0.40;1.00;;;;;;5113793;28;20214;-80
2023/12/02 03:25:57;;;;;;;16.07;9.67;;;-0.40;1.00;;;;;;5117907;28;20206;-80
2023/12/02 03:28:24;;;;;;;17.38;8.65;;;-0.40;1.00;;;;;;5116772;28;20465;-79
2023/12/02 03:30:52;;;;;;;18.33;9.18;;;-0.40;1.00;;;;;;5114036;28;20227;-79
2023/12/02 03:33:19;;;;;;;13.63;9.43;;;-0.50;1.00;;;;;;5099790;28;20308;-79
2023/12/02 03:35:46;;;;;;;15.30;7.70;;;-0.50;1.00;;;;;;5117773;28;20220;-80
2023/12/02 03:38:13;;;;;;;14.57;8.23;;;-0.40;1.00;;;;;;5110687;28;20238;-80
2023/12/02 03:40:40;;;;;;;13.38;7.35;;;-0.30;1.00;;;;;;5112806;28;20300;-79
2023/12/02 03:43:06;;;;;;;14.23;7.60;;;-0.40;1.00;;;;;;5106210;28;20207;-80
2023/12/02 03:45:33;;;;;;;14.13;7.72;;;-0.40;1.00;;;;;;5107927;28;20212;-80
2023/12/02 03:48:02;;;;;;;16.17;8.65;;;-0.30;1.00;;;;;;5118094;28;20855;-79
2023/12/02 03:50:28;;;;;;;14.38;7.60;;;-0.30;1.00;;;;;;5114396;28;20223;-81
2023/12/02 03:52:55;;;;;;;12.52;7.25;;;-0.50;1.00;;;;;;5114377;28;20208;-81
2023/12/02 03:55:22;;;;;;;17.70;8.75;;;-0.40;1.00;;;;;;5118956;28;20217;-79
2023/12/02 03:57:49;;;;;;;14.70;7.10;;;-0.40;1.00;;;;;;5119274;28;20229;-80
2023/12/02 04:00:19;;;;;;;13.02;8.27;;;-0.30;1.00;;;;;;5116828;28;20697;-76
2023/12/02 04:02:46;;;;;;;13.43;7.35;;;-0.40;1.00;;;;;;5118081;28;20210;-80
2023/12/02 04:05:14;;;;;;;15.52;7.93;;;-0.50;1.00;;;;;;5113738;28;20229;-79
2023/12/02 04:07:41;;;;;;;13.07;7.55;;;-0.60;1.00;;;;;;5120277;28;20237;-79
2023/12/02 04:10:09;;;;;;;15.48;8.38;;;-0.60;1.00;;;;;;5118327;28;20234;-80
2023/12/02 04:12:37;;;;;;;12.50;7.00;;;-0.50;1.00;;;;;;5115333;28;20212;-80
2023/12/02 04:15:06;;;;;;;13.77;7.78;;;-0.40;1.00;;;;;;5119092;28;20214;-81
2023/12/02 04:17:33;;;;;;;13.63;8.23;;;-0.40;1.00;;;;;;5119624;28;20226;-80
2023/12/02 04:19:59;;;;;;;15.77;7.55;;;-0.40;1.00;;;;;;5117589;28;20213;-78
2023/12/02 04:22:27;;;;;;;15.20;7.93;;;-0.40;1.00;;;;;;5125915;28;20210;-78
2023/12/02 04:24:54;;;;;;;18.52;10.45;;;-0.40;1.00;;;;;;5116557;28;20207;-78
2023/12/02 04:27:21;;;;;;;17.85;9.20;;;-0.40;1.00;;;;;;5111903;28;20239;-78
2023/12/02 04:29:48;;;;;;;13.25;7.25;;;-0.50;1.00;;;;;;5115085;28;20258;-77
2023/12/02 04:32:15;;;;;;;17.20;9.43;;;-0.40;1.00;;;;;;5111750;28;20202;-78
2023/12/02 04:34:42;;;;;;;15.45;8.45;;;-0.50;1.00;;;;;;5124981;28;20218;-77
2023/12/02 04:37:08;;;;;;;18.67;11.32;;;-0.40;1.00;;;;;;5119979;28;20302;-79
2023/12/02 04:39:37;;;;;;;17.47;10.57;;;-0.30;1.00;;;;;;5109068;28;20200;-80
2023/12/02 04:42:04;;;;;;;19.25;9.30;;;-0.30;1.00;;;;;;5118508;28;20623;-78
2023/12/02 04:44:31;;;;;;;18.45;9.27;;;-0.30;1.00;;;;;;5118218;28;20274;-80
2023/12/02 04:46:58;;;;;;;17.83;9.23;;;-0.30;1.00;;;;;;5117923;28;20588;-80
2023/12/02 04:49:25;;;;;;;15.77;8.85;;;-0.20;1.00;;;;;;5109967;28;20203;-80
2023/12/02 04:51:52;;;;;;;15.23;7.40;;;-0.10;1.00;;;;;;5117265;28;20229;-79
2023/12/02 04:54:19;;;;;;;13.90;8.43;;;-0.10;1.00;;;;;;5108467;28;20250;-80
2023/12/02 04:56:48;;;;;;;13.68;7.50;;;0.00;1.00;;;;;;5117622;28;20450;-79
2023/12/02 04:59:14;;;;;;;17.15;8.32;;;0.00;1.00;;;;;;5109459;28;20217;-79
2023/12/02 05:01:41;;;;;;;15.27;8.80;;;-0.10;1.00;;;;;;5117747;28;20295;-79
2023/12/02 05:04:08;;;;;;;12.68;8.40;;;-0.10;1.00;;;;;;5114998;28;20214;-80
2023/12/02 05:06:35;;;;;;;15.55;7.60;;;0.00;1.00;;;;;;5111120;28;20221;-79
2023/12/02 05:09:02;;;;;;;14.15;8.48;;;0.00;1.00;;;;;;5108419;28;20230;-80
2023/12/02 05:11:29;;;;;;;15.20;8.23;;;0.00;1.00;;;;;;5117241;28;20321;-79
2023/12/02 05:13:57;;;;;;;13.73;9.50;;;0.00;1.00;;;;;;5115951;28;20445;-80
2023/12/02 05:16:24;;;;;;;12.05;7.18;;;-0.10;99.90;;;;;;5111667;28;20214;-79
2023/12/02 05:18:50;;;;;;;10.95;6.03;;;-0.20;1.00;;;;;;5110798;28;20227;-79
2023/12/02 05:21:18;;;;;;;14.70;7.60;;;-0.20;99.90;;;;;;5116692;28;20571;-80
2023/12/02 05:23:45;;;;;;;12.00;6.53;;;-0.10;1.00;;;;;;5112533;28;20457;-79
2023/12/02 05:26:12;;;;;;;10.97;7.10;;;-0.10;99.90;;;;;;5115647;28;20657;-80
2023/12/02 05:28:40;;;;;;;11.95;8.00;;;-0.20;99.90;;;;;;5116006;28;20476;-79
2023/12/02 05:31:08;;;;;;;9.30;5.50;;;-0.30;99.90;;;;;;5110176;28;20696;-80
2023/12/02 05:33:35;;;;;;;13.18;7.40;;;-0.20;99.90;;;;;;5110863;28;20212;-78
2023/12/02 05:36:03;;;;;;;12.02;7.57;;;-0.30;99.90;;;;;;5110343;28;20222;-80
2023/12/02 05:38:30;;;;;;;11.93;7.53;;;-0.30;99.90;;;;;;5111003;28;20232;-80
2023/12/02 05:40:57;;;;;;;11.18;6.78;;;-0.40;1.00;;;;;;5113583;28;20207;-79
2023/12/02 05:43:23;;;;;;;11.52;7.03;;;-0.50;1.00;;;;;;5116512;28;20217;-78
2023/12/02 05:45:50;;;;;;;13.45;6.35;;;-0.50;1.00;;;;;;5118076;28;20207;-78
2023/12/02 05:48:18;;;;;;;11.68;7.18;;;-0.40;1.00;;;;;;5121227;28;20223;-77
2023/12/02 05:50:45;;;;;;;12.07;7.47;;;-0.60;1.00;;;;;;5119562;28;20274;-79
2023/12/02 05:53:12;;;;;;;14.55;8.02;;;-0.60;1.00;;;;;;5125118;28;20252;-78
2023/12/02 05:55:39;;;;;;;15.35;9.10;;;-0.60;1.00;;;;;;5123760;28;20217;-78
2023/12/02 05:58:06;;;;;;;9.88;6.18;;;-0.60;1.00;;;;;;5124856;28;20702;-77
2023/12/02 06:00:35;;;;;;;10.38;5.95;;;-0.60;1.00;;;;;;5113121;28;20559;-82
2023/12/02 06:03:02;;;;;;;12.98;7.55;;;-0.50;1.00;;;;;;5118084;28;20207;-82
2023/12/02 06:05:30;;;;;;;16.25;7.53;;;-0.60;1.00;;;;;;5112835;28;20210;-80
2023/12/02 06:07:57;;;;;;;13.63;8.07;;;-0.80;1.00;;;;;;5121017;28;20277;-79
2023/12/02 06:10:23;;;;;;;13.23;6.75;;;-0.50;1.00;;;;;;5114370;28;20308;-79
2023/12/02 06:12:50;;;;;;;14.55;8.98;;;-0.50;1.00;;;;;;5126138;28;20274;-80
2023/12/02 06:15:17;;;;;;;11.10;6.63;;;-0.40;1.00;;;;;;5112419;28;20278;-79
2023/12/02 06:17:44;;;;;;;10.75;7.35;;;-0.40;1.00;;;;;;5126242;28;20269;-78
2023/12/02 06:20:11;;;;;;;14.20;6.90;;;-0.40;1.00;;;;;;5126601;28;20241;-81
2023/12/02 06:22:39;;;;;;;12.65;7.45;;;-0.30;1.00;;;;;;5131597;28;20215;-80
2023/12/02 06:25:07;;;;;;;15.57;8.52;;;-0.30;1.00;;;;;;5124768;28;20239;-81
2023/12/02 06:27:34;;;;;;;10.82;7.10;;;-0.20;1.00;;;;;;5105957;28;20228;-79
2023/12/02 06:30:01;;;;;;;12.73;7.00;;;-0.20;1.00;;;;;;5113581;28;20231;-79
2023/12/02 06:32:27;;;;;;;11.10;6.72;;;-0.10;1.00;;;;;;5106250;28;20302;-79
2023/12/02 06:34:54;;;;;;;10.38;7.45;;;-0.10;1.00;;;;;;5110246;28;20713;-78
2023/12/02 06:37:21;;;;;;;10.18;6.65;;;0.00;1.00;;;;;;5094396;28;20857;-81
2023/12/02 06:39:49;;;;;;;12.00;6.78;;;-0.10;1.00;;;;;;5091973;28;20201;-81
2023/12/02 06:42:16;;;;;;;10.57;7.30;;;0.00;99.90;;;;;;5093531;28;20663;-78
2023/12/02 06:44:43;;;;;;;10.20;5.85;;;0.00;99.90;;;;;;5089334;28;20478;-79
2023/12/02 06:47:10;;;;;;;14.23;7.53;;;0.00;1.00;;;;;;5094045;28;20220;-80
2023/12/02 06:49:37;;;;;;;10.85;7.47;;;0.10;99.90;;;;;;5090987;28;20201;-78
2023/12/02 06:52:04;;;;;;;12.27;7.03;;;0.10;99.90;;;;;;5093437;28;20322;-77
2023/12/02 06:54:35;;;;;;;20.38;10.32;;;0.00;99.90;;;;;;5091060;28;20204;-80
2023/12/02 06:57:04;;;;;;;12.63;8.35;;;0.00;99.90;;;;;;5095852;28;20227;-79
2023/12/02 06:59:31;;;;;;;11.27;7.93;;;-0.10;99.90;;;;;;5102392;28;20290;-80
2023/12/02 07:01:58;;;;;;;33.05;16.25;;;-0.20;99.90;;;;;;5117473;28;20245;-81
2023/12/02 07:04:25;;;;;;;43.58;17.90;;;-0.10;99.90;;;;;;5101877;28;20207;-78
2023/12/02 07:06:52;;;;;;;28.25;14.07;;;-0.10;99.90;;;;;;5095425;28;20652;-80
2023/12/02 07:09:18;;;;;;;21.52;11.38;;;0.00;99.90;;;;;;5094447;28;20207;-77
2023/12/02 07:11:45;;;;;;;13.30;7.47;;;0.10;99.90;;;;;;5109964;28;20223;-78
2023/12/02 07:14:13;;;;;;;14.13;7.30;;;0.10;99.90;;;;;;5091586;28;20207;-82
2023/12/02 07:16:40;;;;;;;10.98;6.68;;;0.00;99.90;;;;;;5117108;28;20461;-80
2023/12/02 07:19:07;;;;;;;11.23;6.13;;;0.10;99.90;;;;;;5115103;28;20209;-81
2023/12/02 07:21:34;;;;;;;12.57;7.18;;;0.00;99.90;;;;;;5122554;28;20214;-78
2023/12/02 07:24:01;;;;;;;12.77;7.07;;;0.10;99.90;;;;;;5120198;28;20217;-78
2023/12/02 07:26:28;;;;;;;12.05;6.15;;;0.10;99.90;;;;;;5100585;28;20683;-80
2023/12/02 07:28:55;;;;;;;10.32;6.15;;;0.10;99.90;;;;;;5108063;28;20309;-80
2023/12/02 07:31:23;;;;;;;11.90;6.90;;;0.20;99.90;;;;;;5119131;28;20262;-78
2023/12/02 07:33:49;;;;;;;12.73;7.53;;;0.20;99.90;;;;;;5117241;28;20253;-77
2023/12/02 07:36:16;;;;;;;13.00;7.40;;;0.10;99.90;;;;;;5112622;28;20206;-79
2023/12/02 07:38:43;;;;;;;12.60;7.20;;;0.10;99.90;;;;;;5114519;28;20226;-80
2023/12/02 07:41:10;;;;;;;10.40;6.18;;;0.10;99.90;;;;;;5112937;28;20205;-80
2023/12/02 07:43:37;;;;;;;13.52;7.40;;;0.10;99.90;;;;;;5118203;28;20214;-79
2023/12/02 07:46:04;;;;;;;11.60;6.60;;;0.10;99.90;;;;;;5115868;28;20296;-78
2023/12/02 07:48:32;;;;;;;8.95;5.63;;;0.10;99.90;;;;;;5113476;28;20223;-80
2023/12/02 07:50:59;;;;;;;13.38;8.32;;;0.00;99.90;;;;;;5101268;28;20238;-79
2023/12/02 07:53:26;;;;;;;13.80;6.80;;;0.00;99.90;;;;;;5097866;28;20208;-79
2023/12/02 07:55:53;;;;;;;14.93;7.90;;;0.00;99.90;;;;;;5107009;28;20467;-78
2023/12/02 07:58:19;;;;;;;10.07;6.90;;;0.10;99.90;;;;;;5113084;28;20447;-80
2023/12/02 08:00:46;;;;;;;13.45;7.72;;;0.00;99.90;;;;;;5116362;28;20206;-79
2023/12/02 08:03:13;;;;;;;11.77;7.70;;;0.00;99.90;;;;;;5116318;28;20222;-79
2023/12/02 08:05:41;;;;;;;12.95;6.55;;;-0.10;99.90;;;;;;5112702;28;20202;-80
2023/12/02 08:08:08;;;;;;;11.27;7.00;;;0.00;99.90;;;;;;5109531;28;20230;-81
2023/12/02 08:10:36;;;;;;;13.18;7.30;;;0.00;99.90;;;;;;5123395;28;20214;-80
2023/12/02 08:13:03;;;;;;;10.63;6.37;;;0.10;99.90;;;;;;5119608;28;20233;-81
2023/12/02 08:15:30;;;;;;;11.18;7.05;;;0.20;99.90;;;;;;5115753;28;20505;-81
2023/12/02 08:17:56;;;;;;;10.60;6.23;;;0.20;99.90;;;;;;5111954;28;20237;-79
2023/12/02 08:20:23;;;;;;;10.80;7.00;;;0.30;99.90;;;;;;5117852;28;20461;-81
2023/12/02 08:22:51;;;;;;;10.70;7.28;;;0.30;99.90;;;;;;5113982;28;20463;-79
2023/12/02 08:25:18;;;;;;;10.70;6.57;;;0.30;99.90;;;;;;5089484;28;20594;-81
2023/12/02 08:27:45;;;;;;;9.75;6.30;;;0.30;99.90;;;;;;5110972;28;20223;-81
2023/12/02 08:30:13;;;;;;;12.02;6.78;;;0.40;99.90;;;;;;5115680;28;20216;-81
2023/12/02 08:32:40;;;;;;;12.80;7.30;;;0.30;99.90;;;;;;5117449;28;20276;-80
2023/12/02 08:35:07;;;;;;;11.10;6.93;;;0.40;99.90;;;;;;5117089;28;20203;-82
2023/12/02 08:37:34;;;;;;;10.73;7.07;;;0.50;99.90;;;;;;5117066;28;20250;-82
2023/12/02 08:40:05;;;;;;;11.30;7.07;;;0.50;99.90;;;;;;5110257;28;20208;-82
2023/12/02 08:42:32;;;;;;;10.98;7.28;;;0.60;99.90;;;;;;5088283;28;20206;-82
2023/12/02 08:44:59;;;;;;;11.70;6.85;;;0.50;1.00;;;;;;5106042;28;20732;-80
2023/12/02 08:47:26;;;;;;;12.73;7.50;;;0.60;1.00;;;;;;5116587;28;20233;-79
2023/12/02 08:49:52;;;;;;;11.80;8.50;;;0.70;1.00;;;;;;5093536;28;20211;-78
2023/12/02 08:52:19;;;;;;;14.15;7.35;;;0.70;1.00;;;;;;5115846;28;20246;-80
2023/12/02 08:54:46;;;;;;;11.60;7.17;;;0.70;1.00;;;;;;5113628;28;20217;-79
2023/12/02 08:57:14;;;;;;;12.00;8.87;;;0.90;83.20;;;;;;5090961;28;20470;-80
2023/12/02 08:59:41;;;;;;;15.77;6.80;;;1.00;1.00;;;;;;5101768;28;20445;-78
2023/12/02 09:02:08;;;;;;;16.60;8.50;;;1.10;1.00;;;;;;5095621;28;20545;-80
2023/12/02 09:04:35;;;;;;;11.50;6.83;;;1.10;99.90;;;;;;5101400;28;20532;-79
2023/12/02 09:07:02;;;;;;;14.77;8.00;;;1.10;99.90;;;;;;5102274;28;20477;-78
2023/12/02 09:09:29;;;;;;;14.57;8.03;;;1.10;99.90;;;;;;5104120;28;20577;-79
2023/12/02 09:11:56;;;;;;;19.00;11.40;;;1.10;99.90;;;;;;5103416;28;20463;-79
2023/12/02 09:14:24;;;;;;;14.00;8.97;;;1.20;99.90;;;;;;5098801;28;20529;-80
2023/12/02 09:16:51;;;;;;;12.83;8.00;;;1.20;1.00;;;;;;5102348;28;20973;-78
2023/12/02 09:19:54;;;;;;;13.33;8.80;;;1.30;1.00;;;;;;5099568;28;20869;-80
2023/12/02 09:22:47;;;;;;;16.50;9.10;;;1.30;1.00;;;;;;5100779;28;20832;-79
2023/12/02 09:25:26;;;;;;;15.67;7.70;;;1.20;1.00;;;;;;5104723;28;20456;-81
2023/12/02 09:28:17;;;;;;;13.68;9.13;;;1.30;99.90;;;;;;5090613;28;20482;-78
2023/12/02 09:31:00;;;;;;;14.00;9.30;;;1.30;1.00;;;;;;5067913;28;21100;-80
2023/12/02 09:33:28;;;;;;;14.77;8.37;;;1.40;99.90;;;;;;5088371;28;20478;-80
2023/12/02 09:35:57;;;;;;;16.37;9.40;;;1.40;99.90;;;;;;5089829;28;21156;-80
2023/12/02 09:38:24;;;;;;;11.67;7.87;;;1.50;99.90;;;;;;5088602;28;20469;-80
2023/12/02 09:41:10;;;;;;;15.33;8.23;;;1.30;99.90;;;;;;5101173;28;20453;-80
2023/12/02 09:43:44;;;;;;;11.60;8.20;;;1.20;1.00;;;;;;5088992;28;20539;-80
2023/12/02 09:46:23;;;;;;;12.00;7.43;;;1.10;1.00;;;;;;5094687;28;20408;-80
2023/12/02 09:49:05;;;;;;;15.60;9.10;;;1.20;99.90;;;;;;5095665;28;20896;-81
2023/12/02 09:51:56;;;;;;;16.77;9.27;;;1.30;1.00;;;;;;5094796;28;20818;-80
2023/12/02 09:54:31;;;;;;;15.27;9.13;;;1.50;1.00;;;;;;5088671;28;20472;-81
2023/12/02 09:57:04;;;;;;;13.27;8.68;;;1.60;1.00;;;;;;5088982;28;20546;-79
2023/12/02 09:59:40;;;;;;;13.90;8.30;;;1.70;1.00;;;;;;5092280;28;20687;-81
2023/12/02 10:02:21;;;;;;;14.80;9.30;;;1.60;1.00;;;;;;5096931;28;20557;-81
2023/12/02 10:05:04;;;;;;;12.80;8.17;;;1.50;22.80;;;;;;5094186;28;20202;-79
2023/12/02 10:07:45;;;;;;;11.70;8.40;;;1.50;99.90;;;;;;5098760;28;20469;-81
2023/12/02 10:10:19;;;;;;;12.40;8.43;;;1.40;1.00;;;;;;5098772;28;20545;-82
2023/12/02 10:12:56;;;;;;;15.80;8.05;;;1.30;1.00;;;;;;5095844;28;20444;-80
2023/12/02 10:15:28;;;;;;;12.67;8.30;;;1.30;99.90;;;;;;5093937;28;20207;-81
2023/12/02 10:18:01;;;;;;;13.20;8.53;;;1.30;99.90;;;;;;5097421;28;20470;-80
2023/12/02 10:20:29;;;;;;;11.77;7.70;;;1.30;1.00;;;;;;5105625;28;20818;-79
2023/12/02 10:22:59;;;;;;;12.70;7.50;;;1.20;99.90;;;;;;5099651;28;20514;-79
2023/12/02 10:25:34;;;;;;;13.83;8.00;;;1.10;99.90;;;;;;5109598;28;20441;-79
2023/12/02 10:28:11;;;;;;;12.67;7.40;;;1.20;99.90;;;;;;5103683;28;20465;-80
2023/12/02 10:30:46;;;;;;;11.33;6.90;;;1.20;1.00;;;;;;5104799;28;20484;-81
2023/12/02 10:33:36;;;;;;;12.60;7.87;;;1.20;1.00;;;;;;5107491;28;20989;-80
2023/12/02 10:36:05;;;;;;;14.00;7.70;;;1.20;1.00;;;;;;5103441;28;20544;-80
2023/12/02 10:38:39;;;;;;;12.02;7.75;;;1.10;1.00;;;;;;5099552;28;20498;-82
2023/12/02 10:41:13;;;;;;;14.77;8.47;;;1.00;99.90;;;;;;5100247;28;20272;-81
2023/12/02 10:43:43;;;;;;;13.33;9.10;;;1.10;99.90;;;;;;5099705;28;20443;-78
2023/12/02 10:46:11;;;;;;;13.35;8.40;;;1.20;99.90;;;;;;5101072;28;20477;-79
2023/12/02 10:48:40;;;;;;;11.87;7.80;;;1.30;99.70;;;;;;5092746;28;20309;-77
2023/12/02 10:51:08;;;;;;;14.10;8.80;;;1.30;1.00;;;;;;5084342;28;20486;-81
2023/12/02 10:53:37;;;;;;;13.13;7.70;;;1.40;99.90;;;;;;5093380;28;20569;-81
2023/12/02 10:56:10;;;;;;;10.63;7.80;;;1.50;99.90;;;;;;5094189;28;20231;-80
2023/12/02 10:58:38;;;;;;;11.30;8.30;;;1.60;99.90;;;;;;5095621;28;20478;-82
2023/12/02 11:01:08;;;;;;;15.13;9.13;;;1.60;99.90;;;;;;5096672;28;20917;-80
2023/12/02 11:03:46;;;;;;;13.70;9.30;;;1.80;1.00;;;;;;5094210;28;20554;-81
2023/12/02 11:06:21;;;;;;;15.60;9.20;;;1.80;99.90;;;;;;5091827;28;20446;-80
2023/12/02 11:08:54;;;;;;;15.63;8.97;;;2.00;1.00;;;;;;5102054;28;20444;-78
2023/12/02 11:11:37;;;;;;;15.33;9.77;;;2.00;1.00;;;;;;5099107;28;20529;-82
2023/12/02 11:14:05;;;;;;;11.47;8.53;;;2.10;24.10;;;;;;5109080;28;20509;-81
2023/12/02 11:16:40;;;;;;;15.70;9.13;;;2.30;99.90;;;;;;5101592;28;20484;-81
2023/12/02 11:19:31;;;;;;;13.33;8.47;;;2.80;1.00;;;;;;5102273;28;20439;-81
2023/12/02 11:22:36;;;;;;;18.40;11.03;;;3.50;1.00;;;;;;5092009;28;20439;-83
2023/12/02 11:25:15;;;;;;;12.57;9.30;;;4.80;49.40;;;;;;5037677;28;20451;-81
2023/12/02 11:27:50;;;;;;;12.47;8.03;;;5.90;1.00;;;;;;5100582;28;21013;-82
2023/12/02 11:30:27;;;;;;;12.27;8.10;;;7.00;99.90;;;;;;5112416;28;20450;-80
2023/12/02 11:33:10;;;;;;;12.07;8.37;;;7.60;94.80;;;;;;5103253;28;20489;-81
2023/12/02 11:35:46;;;;;;;11.33;8.17;;;7.30;93.20;;;;;;5109022;28;20479;-81
2023/12/02 11:38:18;;;;;;;17.70;11.60;;;6.80;92.80;;;;;;5106912;28;20492;-81
2023/12/02 11:40:56;;;;;;;10.20;8.27;;;6.50;94.70;;;;;;5101347;28;20939;-82
2023/12/02 11:43:39;;;;;;;12.83;7.53;;;5.90;95.40;;;;;;5101571;28;20451;-82
2023/12/02 11:46:14;;;;;;;16.10;8.50;;;5.00;99.90;;;;;;5103304;28;20456;-82
2023/12/02 11:48:49;;;;;;;14.90;8.57;;;5.00;99.90;;;;;;5107954;28;20899;-78
2023/12/02 11:51:30;;;;;;;14.50;9.70;;;5.10;99.90;;;;;;5109517;28;20447;-81
2023/12/02 11:54:16;;;;;;;14.70;9.67;;;5.10;99.90;;;;;;5104438;28;20521;-82
2023/12/02 11:56:51;;;;;;;12.57;8.13;;;5.00;99.90;;;;;;5101029;28;20446;-80
2023/12/02 11:59:20;;;;;;;12.10;8.57;;;5.80;99.90;;;;;;5101066;28;20871;-81
2023/12/02 12:02:02;;;;;;;13.87;9.77;;;7.50;99.00;;;;;;5102472;28;20506;-82
2023/12/02 12:04:48;;;;;;;15.67;8.80;;;7.20;92.80;;;;;;5100260;28;20533;-82
2023/12/02 12:07:31;;;;;;;13.13;8.40;;;7.20;91.60;;;;;;5097317;28;20645;-82
2023/12/02 12:10:07;;;;;;;17.23;11.10;;;6.80;90.20;;;;;;5103631;28;20932;-82
2023/12/02 12:12:37;;;;;;;12.87;8.40;;;5.40;96.50;;;;;;5103993;28;20488;-83
2023/12/02 12:15:05;;;;;;;14.93;8.90;;;5.30;99.90;;;;;;5106828;28;20477;-82
2023/12/02 12:17:32;;;;;;;12.60;8.13;;;4.90;99.90;;;;;;5110293;28;20495;-82
2023/12/02 12:19:59;;;;;;;13.90;9.10;;;4.70;99.90;;;;;;5103947;28;20532;-81
2023/12/02 12:22:27;;;;;;;14.70;9.17;;;4.20;99.90;;;;;;5097983;28;20447;-83
2023/12/02 12:24:54;;;;;;;11.07;8.07;;;4.30;99.90;;;;;;5096683;28;20539;-82
2023/12/02 12:27:21;;;;;;;11.20;7.50;;;4.30;99.90;;;;;;5102746;28;20478;-82
2023/12/02 12:29:55;;;;;;;13.60;8.23;;;4.30;99.90;;;;;;5102551;28;20598;-82
2023/12/02 12:32:22;;;;;;;16.00;10.13;;;4.30;99.90;;;;;;5093036;28;20483;-82
2023/12/02 12:34:53;;;;;;;16.73;10.20;;;4.20;99.90;;;;;;5099540;28;20549;-82
2023/12/02 12:37:20;;;;;;;14.67;9.53;;;4.00;99.90;;;;;;5102917;28;20484;-83
2023/12/02 12:39:50;;;;;;;14.80;9.87;;;3.80;99.90;;;;;;5094731;28;20547;-80
2023/12/02 12:42:18;;;;;;;15.13;10.17;;;3.80;1.00;;;;;;5104747;28;20900;-82
2023/12/02 12:44:45;;;;;;;17.33;11.50;;;3.90;99.90;;;;;;5100774;28;20443;-83
2023/12/02 12:47:12;;;;;;;17.30;10.20;;;4.20;99.90;;;;;;5091986;28;20461;-80
2023/12/02 12:49:40;;;;;;;17.10;10.57;;;4.20;99.90;;;;;;5089822;28;21014;-82
2023/12/02 12:52:09;;;;;;;21.87;11.80;;;4.00;99.90;;;;;;5114558;28;20503;-83
2023/12/02 12:54:46;;;;;;;21.13;12.27;;;3.70;99.90;;;;;;5099133;28;20448;-82
2023/12/02 12:57:25;;;;;;;18.70;11.67;;;3.70;1.00;;;;;;5098527;28;20468;-83